Time;durP1;ratioP1;P1;durP2;ratioP2;P2;SDS_P1;SDS_P2;PMS_P1;PMS_P2;Temp;Humidity;BMP_temperature;BMP_pressure;BME280_temperature;BME280_humidity;BME280_pressure;Samples;Min_cycle;Max_cycle;Signal;HPM_P1;HPM_P2
2022/05/30 00:00:43;;;;;;;352.17;339.37;;;10.00;99.90;;;;;;5030086;28;20289;-72
2022/05/30 00:03:08;;;;;;;354.27;341.53;;;9.90;99.90;;;;;;5024890;28;20284;-68
2022/05/30 00:05:34;;;;;;;368.77;355.43;;;9.90;99.90;;;;;;5026969;28;20647;-68
2022/05/30 00:08:00;;;;;;;393.90;379.17;;;9.80;99.90;;;;;;5014508;28;20262;-68
2022/05/30 00:10:27;;;;;;;399.07;384.23;;;9.80;99.90;;;;;;5020019;28;20528;-68
2022/05/30 00:12:54;;;;;;;398.97;384.33;;;9.80;99.90;;;;;;5027897;28;20547;-68
2022/05/30 00:15:24;;;;;;;406.70;391.63;;;9.80;99.90;;;;;;5025529;28;20186;-68
2022/05/30 00:17:54;;;;;;;400.27;385.53;;;9.70;99.90;;;;;;5036246;28;20188;-68
2022/05/30 00:20:20;;;;;;;421.10;405.33;;;9.70;99.90;;;;;;5018724;28;20176;-68
2022/05/30 00:22:47;;;;;;;429.73;413.63;;;9.60;99.90;;;;;;5028825;28;20203;-67
2022/05/30 00:25:13;;;;;;;429.30;412.80;;;9.50;99.90;;;;;;5013034;28;20190;-68
2022/05/30 00:27:38;;;;;;;434.97;418.53;;;9.50;99.90;;;;;;5024045;28;20632;-69
2022/05/30 00:30:07;;;;;;;431.43;414.83;;;9.50;99.90;;;;;;5032387;28;20233;-72
2022/05/30 00:32:34;;;;;;;434.63;418.13;;;9.50;99.90;;;;;;5044408;28;20187;-67
2022/05/30 00:34:59;;;;;;;433.63;417.20;;;9.60;99.90;;;;;;5021090;28;20647;-67
2022/05/30 00:37:28;;;;;;;434.13;417.43;;;9.50;99.90;;;;;;5019374;28;20218;-68
2022/05/30 00:39:54;;;;;;;445.53;428.17;;;9.50;99.90;;;;;;5029992;28;20241;-67
2022/05/30 00:42:22;;;;;;;443.23;426.20;;;9.40;99.90;;;;;;5023141;28;20230;-67
2022/05/30 00:44:49;;;;;;;443.93;426.77;;;9.40;99.90;;;;;;5045995;28;20198;-72
2022/05/30 00:47:16;;;;;;;446.63;429.23;;;9.40;99.90;;;;;;5010681;28;20191;-67
2022/05/30 00:49:45;;;;;;;451.20;433.70;;;9.30;99.90;;;;;;5022886;28;20520;-67
2022/05/30 00:52:32;;;;;;;450.03;432.70;;;9.30;99.90;;;;;;5046479;28;20221;-68
2022/05/30 00:55:05;;;;;;;465.30;446.67;;;9.30;99.90;;;;;;5030678;28;20640;-67
2022/05/30 00:57:33;;;;;;;465.97;447.20;;;9.30;99.90;;;;;;5034492;28;20236;-67
2022/05/30 01:00:19;;;;;;;474.70;455.93;;;9.30;99.90;;;;;;5031992;28;20716;-68
2022/05/30 01:06:30;;;;;;;483.13;463.07;;;9.20;99.90;;;;;;5033767;28;20217;-67
2022/05/30 01:08:16;;;;;;;491.77;471.73;;;9.10;99.90;;;;;;5029719;28;20252;-68
2022/05/30 01:10:42;;;;;;;483.30;463.53;;;9.10;99.90;;;;;;5031619;28;20636;-67
2022/05/30 01:13:12;;;;;;;501.23;480.43;;;9.10;99.90;;;;;;5032061;28;20195;-68
2022/05/30 01:15:38;;;;;;;502.93;481.73;;;9.10;99.90;;;;;;5033899;28;20183;-67
2022/05/30 01:18:20;;;;;;;504.20;482.77;;;9.00;99.90;;;;;;5031497;28;20333;-67
2022/05/30 01:20:55;;;;;;;506.53;485.10;;;9.00;99.90;;;;;;5032934;28;20253;-67
2022/05/30 01:23:36;;;;;;;504.70;483.33;;;9.00;99.90;;;;;;5020611;28;20663;-67
2022/05/30 01:26:22;;;;;;;513.13;491.33;;;9.00;99.90;;;;;;5030548;28;20223;-68
2022/05/30 01:29:09;;;;;;;510.07;488.20;;;9.00;99.90;;;;;;5049977;28;20201;-68
2022/05/30 01:31:35;;;;;;;510.77;489.13;;;8.90;99.90;;;;;;5021896;28;20535;-68
2022/05/30 01:34:01;;;;;;;517.13;494.57;;;8.90;99.90;;;;;;5024001;28;20179;-67
2022/05/30 01:36:29;;;;;;;507.70;486.03;;;8.80;99.90;;;;;;5045439;28;20187;-68
2022/05/30 01:38:55;;;;;;;508.83;487.23;;;8.80;99.90;;;;;;5026955;28;20539;-68
2022/05/30 01:41:21;;;;;;;514.20;491.73;;;8.80;99.90;;;;;;5031022;28;20186;-68
2022/05/30 01:43:47;;;;;;;514.63;492.67;;;8.70;99.90;;;;;;5030969;28;20187;-67
2022/05/30 01:46:17;;;;;;;499.30;478.30;;;8.70;99.90;;;;;;5017719;28;20199;-67
2022/05/30 01:48:43;;;;;;;503.93;482.73;;;8.70;99.90;;;;;;5030411;28;20190;-67
2022/05/30 01:51:09;;;;;;;490.23;469.70;;;8.70;99.90;;;;;;5025302;28;20277;-67
2022/05/30 01:53:34;;;;;;;494.63;473.73;;;8.70;99.90;;;;;;5039743;28;20278;-67
2022/05/30 01:56:00;;;;;;;487.70;467.40;;;8.70;99.90;;;;;;5024550;28;20636;-67
2022/05/30 01:58:26;;;;;;;493.60;472.73;;;8.60;99.90;;;;;;5044782;28;20292;-68
2022/05/30 02:00:51;;;;;;;490.57;469.87;;;8.60;99.90;;;;;;5022819;28;20333;-68
2022/05/30 02:03:17;;;;;;;484.07;463.87;;;8.60;99.90;;;;;;5028292;28;20210;-68
2022/05/30 02:05:42;;;;;;;482.50;462.20;;;8.60;99.90;;;;;;5019010;28;20191;-66
2022/05/30 02:08:08;;;;;;;473.40;453.53;;;8.50;99.90;;;;;;5030111;28;20194;-66
2022/05/30 02:10:35;;;;;;;472.23;452.47;;;8.50;99.90;;;;;;5026749;28;20597;-66
2022/05/30 02:13:02;;;;;;;471.10;450.90;;;8.50;99.90;;;;;;5010558;28;20281;-66
2022/05/30 02:15:28;;;;;;;460.13;440.93;;;8.50;99.90;;;;;;5019414;28;20234;-66
2022/05/30 02:17:54;;;;;;;458.30;438.90;;;8.50;99.90;;;;;;5023476;28;20265;-66
2022/05/30 02:20:20;;;;;;;458.47;439.50;;;8.50;99.90;;;;;;5013407;28;20262;-67
2022/05/30 02:22:46;;;;;;;446.47;427.80;;;8.40;99.90;;;;;;5033363;28;20585;-66
2022/05/30 02:25:13;;;;;;;451.80;432.27;;;8.40;99.90;;;;;;5033271;28;20194;-66
2022/05/30 02:27:41;;;;;;;442.53;423.87;;;8.40;99.90;;;;;;5033355;28;20186;-66
2022/05/30 02:30:08;;;;;;;443.53;424.83;;;8.30;99.90;;;;;;5034042;28;20193;-66
2022/05/30 02:32:33;;;;;;;411.47;394.87;;;8.30;99.90;;;;;;5034634;28;20277;-66
2022/05/30 02:37:43;;;;;;;410.77;393.70;;;8.40;99.90;;;;;;5022535;28;20201;-66
2022/05/30 02:40:09;;;;;;;395.10;378.90;;;8.30;99.90;;;;;;5019130;28;20184;-66
2022/05/30 02:42:35;;;;;;;436.40;417.50;;;8.30;99.90;;;;;;5033471;28;20297;-65
2022/05/30 02:45:01;;;;;;;447.57;429.30;;;8.40;99.90;;;;;;5031664;28;20279;-72
2022/05/30 02:47:26;;;;;;;441.03;422.77;;;8.30;99.90;;;;;;5031765;28;20270;-66
2022/05/30 02:49:53;;;;;;;395.90;379.13;;;8.40;99.90;;;;;;5020692;28;20539;-66
2022/05/30 02:52:18;;;;;;;371.27;355.97;;;8.30;99.90;;;;;;5020011;28;20256;-66
2022/05/30 02:54:44;;;;;;;367.27;352.03;;;8.20;99.90;;;;;;5033291;28;20632;-66
2022/05/30 02:57:10;;;;;;;384.53;367.83;;;8.10;99.90;;;;;;5032629;28;20573;-66
2022/05/30 02:59:35;;;;;;;375.33;359.60;;;8.20;99.90;;;;;;5032289;28;20480;-66
2022/05/30 03:02:01;;;;;;;361.10;345.17;;;8.20;99.90;;;;;;5018219;28;20222;-66
2022/05/30 03:04:27;;;;;;;352.83;337.90;;;8.20;99.90;;;;;;5031506;28;20197;-66
2022/05/30 03:06:53;;;;;;;328.47;314.17;;;8.20;99.90;;;;;;5032858;28;20266;-69
2022/05/30 03:09:19;;;;;;;318.50;304.63;;;8.10;99.90;;;;;;5015651;28;20187;-67
2022/05/30 03:11:45;;;;;;;313.00;299.43;;;8.10;99.90;;;;;;5016175;28;20187;-66
2022/05/30 03:14:11;;;;;;;315.57;301.80;;;8.10;99.90;;;;;;5019362;28;20206;-66
2022/05/30 03:16:36;;;;;;;300.07;287.13;;;8.10;99.90;;;;;;5028752;28;20187;-66
2022/05/30 03:19:02;;;;;;;288.60;275.70;;;8.10;99.90;;;;;;5031224;28;20179;-66
2022/05/30 03:21:28;;;;;;;276.47;263.87;;;8.10;99.90;;;;;;5030642;28;20240;-66
2022/05/30 03:23:53;;;;;;;274.67;262.77;;;8.00;99.90;;;;;;5030536;28;20187;-66
2022/05/30 03:26:19;;;;;;;266.20;253.93;;;8.00;99.90;;;;;;5023869;28;20189;-66
2022/05/30 03:28:45;;;;;;;268.00;256.10;;;8.00;99.90;;;;;;5031218;28;20190;-66
2022/05/30 03:31:11;;;;;;;264.37;252.57;;;8.00;99.90;;;;;;5022185;28;20194;-68
2022/05/30 03:33:38;;;;;;;267.57;254.77;;;8.00;99.90;;;;;;5044651;28;20187;-66
2022/05/30 03:36:15;;;;;;;275.47;263.20;;;8.00;99.90;;;;;;5024770;28;20248;-66
2022/05/30 03:38:42;;;;;;;261.30;249.67;;;8.00;99.90;;;;;;5017081;28;20640;-66
2022/05/30 03:41:08;;;;;;;268.50;255.47;;;8.00;99.90;;;;;;5028664;28;20183;-66
2022/05/30 03:43:34;;;;;;;265.90;253.47;;;8.00;99.90;;;;;;5030886;28;20257;-67
2022/05/30 03:46:00;;;;;;;260.43;248.63;;;8.00;99.90;;;;;;5024630;28;20194;-66
2022/05/30 03:48:25;;;;;;;259.90;248.23;;;8.00;99.90;;;;;;5028209;28;20194;-65
2022/05/30 03:50:51;;;;;;;271.10;258.70;;;8.00;99.90;;;;;;5031948;28;20179;-66
2022/05/30 03:53:17;;;;;;;270.27;258.00;;;8.10;99.90;;;;;;5030062;28;20190;-68
2022/05/30 03:55:45;;;;;;;276.33;263.97;;;8.10;99.90;;;;;;5028634;28;20232;-66
2022/05/30 03:58:12;;;;;;;271.80;259.47;;;8.10;99.90;;;;;;5031500;28;20190;-65
2022/05/30 04:00:40;;;;;;;289.60;276.43;;;8.20;99.90;;;;;;5027204;28;20195;-66
2022/05/30 04:03:06;;;;;;;290.37;276.57;;;8.30;99.90;;;;;;5021237;28;20612;-66
2022/05/30 04:05:32;;;;;;;282.87;269.97;;;8.40;99.90;;;;;;5017419;28;20198;-66
2022/05/30 04:07:58;;;;;;;298.07;284.43;;;8.50;99.90;;;;;;5030702;28;20703;-67
2022/05/30 04:10:24;;;;;;;301.93;288.30;;;8.60;99.90;;;;;;5025281;28;20306;-66
2022/05/30 04:12:50;;;;;;;292.10;279.23;;;8.80;99.90;;;;;;5027123;28;20195;-66
2022/05/30 04:15:23;;;;;;;296.33;282.73;;;8.90;99.90;;;;;;5030693;28;20248;-65
2022/05/30 04:17:49;;;;;;;312.47;298.10;;;9.10;99.90;;;;;;5027081;28;20187;-66
2022/05/30 04:20:16;;;;;;;308.17;294.00;;;9.20;99.90;;;;;;5029578;28;20369;-65
2022/05/30 04:22:44;;;;;;;314.63;300.67;;;9.30;99.90;;;;;;5047574;28;20238;-66
2022/05/30 04:25:10;;;;;;;325.40;310.57;;;9.40;99.90;;;;;;5030271;28;20187;-67
2022/05/30 04:27:36;;;;;;;334.13;318.63;;;9.50;99.90;;;;;;5031283;28;20573;-67
2022/05/30 04:30:04;;;;;;;332.67;317.43;;;9.60;99.90;;;;;;5028866;28;20183;-67
2022/05/30 04:32:30;;;;;;;344.93;328.87;;;9.70;99.90;;;;;;5023238;28;20193;-68
2022/05/30 04:34:56;;;;;;;308.40;294.33;;;9.90;99.90;;;;;;5031263;28;20325;-74
2022/05/30 04:37:21;;;;;;;302.60;289.00;;;10.00;99.90;;;;;;5026596;28;20589;-67
2022/05/30 04:39:47;;;;;;;283.03;269.33;;;10.00;99.90;;;;;;5029525;28;20280;-67
2022/05/30 04:42:13;;;;;;;280.67;267.40;;;10.10;99.90;;;;;;5018129;28;20221;-67
2022/05/30 04:44:38;;;;;;;251.57;239.80;;;10.20;99.90;;;;;;5025865;28;20205;-67
2022/05/30 04:47:05;;;;;;;238.20;227.30;;;10.30;99.90;;;;;;5030770;28;20192;-70
2022/05/30 04:49:31;;;;;;;228.13;218.03;;;10.30;99.90;;;;;;5016343;28;20187;-68
2022/05/30 04:51:57;;;;;;;219.90;210.30;;;10.40;99.90;;;;;;5033240;28;20188;-67
2022/05/30 04:54:24;;;;;;;225.30;215.60;;;10.50;99.90;;;;;;5017678;28;20197;-67
2022/05/30 04:56:50;;;;;;;236.07;225.60;;;10.60;99.90;;;;;;5029886;28;20179;-67
2022/05/30 04:59:17;;;;;;;222.27;212.63;;;10.60;99.90;;;;;;5029586;28;20564;-67
2022/05/30 05:01:42;;;;;;;248.30;238.33;;;10.70;99.90;;;;;;5038709;28;20579;-67
2022/05/30 05:04:11;;;;;;;254.70;244.20;;;10.90;99.90;;;;;;5019895;28;20199;-67
2022/05/30 05:06:37;;;;;;;266.40;255.53;;;11.00;99.90;;;;;;5025104;28;20175;-67
2022/05/30 05:09:15;;;;;;;256.87;246.43;;;11.00;99.90;;;;;;5048226;28;20185;-68
2022/05/30 05:11:42;;;;;;;264.50;253.85;;;11.10;99.90;;;;;;5032918;28;20257;-67
2022/05/30 05:14:08;;;;;;;257.42;247.40;;;11.20;99.90;;;;;;5010565;28;20225;-67
2022/05/30 05:16:34;;;;;;;251.05;240.60;;;11.30;99.90;;;;;;5028441;28;20186;-67
2022/05/30 05:19:00;;;;;;;256.13;245.65;;;11.40;99.90;;;;;;5045663;28;20591;-68
2022/05/30 05:21:28;;;;;;;243.00;233.40;;;11.50;99.90;;;;;;5029933;28;20191;-84
2022/05/30 05:23:55;;;;;;;224.88;215.98;;;11.50;99.90;;;;;;5021960;28;20179;-67
2022/05/30 05:26:21;;;;;;;209.13;200.25;;;11.30;99.90;;;;;;5022397;28;20645;-67
2022/05/30 05:28:48;;;;;;;207.23;199.15;;;11.40;99.90;;;;;;5019889;28;20649;-67
2022/05/30 05:31:34;;;;;;;216.07;207.45;;;11.70;99.90;;;;;;5032561;28;20191;-68
2022/05/30 05:34:02;;;;;;;206.68;198.32;;;11.70;99.90;;;;;;5041196;28;20696;-68
2022/05/30 05:36:33;;;;;;;205.25;197.00;;;11.70;99.90;;;;;;5030065;28;20190;-67
2022/05/30 05:38:59;;;;;;;189.95;182.45;;;11.50;99.90;;;;;;5031906;28;20182;-68
2022/05/30 05:41:25;;;;;;;203.60;195.40;;;11.40;99.90;;;;;;5034211;28;20547;-67
2022/05/30 05:43:54;;;;;;;198.30;189.88;;;11.20;99.90;;;;;;5029397;28;20198;-67
2022/05/30 05:46:23;;;;;;;194.70;187.30;;;11.10;99.90;;;;;;5049048;28;20659;-67
2022/05/30 05:48:51;;;;;;;196.05;188.52;;;11.30;99.90;;;;;;5020740;28;20182;-67
2022/05/30 05:51:18;;;;;;;204.20;196.23;;;11.30;99.90;;;;;;5049718;28;20182;-67
2022/05/30 05:53:44;;;;;;;196.80;189.00;;;11.60;99.90;;;;;;5031599;28;20194;-69
2022/05/30 05:56:18;;;;;;;188.48;181.05;;;11.80;99.90;;;;;;5019272;28;20186;-69
2022/05/30 05:58:44;;;;;;;176.27;168.82;;;12.10;99.90;;;;;;5015127;28;20183;-71
2022/05/30 06:01:12;;;;;;;169.32;162.45;;;12.30;99.90;;;;;;5035095;28;20209;-67
2022/05/30 06:03:38;;;;;;;150.60;144.32;;;12.40;99.90;;;;;;5029300;28;20246;-67
2022/05/30 06:06:05;;;;;;;145.75;139.63;;;12.50;99.90;;;;;;5029356;28;20192;-67
2022/05/30 06:08:32;;;;;;;135.43;129.60;;;12.60;99.90;;;;;;5026172;28;20178;-67
2022/05/30 06:11:05;;;;;;;124.47;119.47;;;12.60;99.90;;;;;;5017322;28;20558;-69
2022/05/30 06:13:31;;;;;;;126.00;120.88;;;12.70;99.90;;;;;;5028686;28;20190;-70
2022/05/30 06:15:56;;;;;;;120.00;115.53;;;12.50;99.90;;;;;;5018713;28;20182;-69
2022/05/30 06:18:22;;;;;;;112.68;108.10;;;12.70;99.90;;;;;;5032037;28;20261;-68
2022/05/30 06:20:48;;;;;;;112.13;107.90;;;12.80;99.90;;;;;;5024564;28;20183;-67
2022/05/30 06:23:13;;;;;;;117.70;112.88;;;12.90;99.90;;;;;;5029747;28;20229;-70
2022/05/30 06:25:39;;;;;;;111.25;106.60;;;12.90;99.90;;;;;;5031375;28;20656;-68
2022/05/30 06:28:05;;;;;;;115.20;110.60;;;13.00;99.90;;;;;;5032002;28;20241;-69
2022/05/30 06:30:31;;;;;;;114.47;109.82;;;13.20;99.90;;;;;;5028537;28;20261;-71
2022/05/30 06:32:56;;;;;;;114.85;110.43;;;13.40;99.90;;;;;;5030877;28;20197;-68
2022/05/30 06:35:22;;;;;;;112.32;107.50;;;13.40;99.90;;;;;;5034837;28;20220;-69
2022/05/30 06:37:48;;;;;;;108.97;104.78;;;13.60;99.90;;;;;;5047709;28;20191;-70
2022/05/30 06:40:15;;;;;;;114.88;110.30;;;14.10;99.90;;;;;;5031632;28;20655;-69
2022/05/30 06:42:40;;;;;;;126.97;122.28;;;14.10;99.90;;;;;;5034257;28;20268;-67
2022/05/30 06:45:06;;;;;;;119.13;114.05;;;14.20;99.90;;;;;;5031794;28;20190;-68
2022/05/30 06:47:32;;;;;;;128.55;123.35;;;14.10;99.90;;;;;;5023761;28;20209;-66
2022/05/30 06:49:58;;;;;;;142.70;137.20;;;14.00;99.90;;;;;;5023053;28;20170;-69
2022/05/30 06:52:24;;;;;;;161.35;154.95;;;13.80;99.90;;;;;;5021518;28;20187;-69
2022/05/30 06:54:49;;;;;;;158.63;152.68;;;13.50;99.90;;;;;;5029572;28;20183;-68
2022/05/30 06:59:59;;;;;;;156.43;149.98;;;13.50;99.90;;;;;;5029189;28;20185;-68
2022/05/30 07:02:25;;;;;;;141.60;135.50;;;13.70;99.90;;;;;;5030758;28;20207;-69
2022/05/30 07:04:50;;;;;;;111.90;107.45;;;14.40;99.90;;;;;;5031360;28;20262;-75
2022/05/30 07:07:16;;;;;;;95.72;92.13;;;16.20;99.90;;;;;;5040370;28;20278;-73
2022/05/30 07:09:42;;;;;;;283.77;273.55;;;18.70;99.90;;;;;;5008925;28;20524;-69
2022/05/30 07:12:09;;;;;;;1999.90;999.90;;;20.70;99.90;;;;;;5022607;28;20353;-70
2022/05/30 07:14:35;;;;;;;1999.90;999.90;;;22.40;99.90;;;;;;5031377;28;20179;-70
2022/05/30 07:17:01;;;;;;;1999.90;999.90;;;24.50;99.90;;;;;;5022206;28;20269;-70
2022/05/30 07:19:27;;;;;;;1999.90;999.90;;;25.80;99.90;;;;;;5016127;28;20265;-68
2022/05/30 07:21:52;;;;;;;1999.90;999.90;;;25.30;99.90;;;;;;5031980;28;20211;-68
2022/05/30 07:24:18;;;;;;;1999.90;999.90;;;22.60;99.90;;;;;;5031565;28;20194;-70
2022/05/30 07:26:44;;;;;;;1999.90;999.90;;;23.00;99.90;;;;;;5022731;28;20526;-72
2022/05/30 07:29:10;;;;;;;1999.90;999.90;;;24.90;99.90;;;;;;5028856;28;20213;-70
2022/05/30 07:31:36;;;;;;;1999.90;999.90;;;26.30;99.90;;;;;;5023314;28;20206;-72
2022/05/30 07:34:02;;;;;;;1999.90;999.90;;;25.60;99.90;;;;;;5029950;28;20182;-71
2022/05/30 07:36:30;;;;;;;1999.90;999.90;;;26.10;99.90;;;;;;5028406;28;20190;-69
2022/05/30 07:38:56;;;;;;;1999.90;999.90;;;26.40;99.90;;;;;;5032424;28;20178;-71
2022/05/30 07:41:24;;;;;;;1999.90;999.90;;;26.20;99.90;;;;;;5020320;28;20203;-68
2022/05/30 07:43:50;;;;;;;1999.90;999.90;;;26.10;99.90;;;;;;5022068;28;20207;-69
2022/05/30 07:46:17;;;;;;;1999.90;999.90;;;24.00;99.90;;;;;;5026772;28;20186;-70
2022/05/30 07:48:44;;;;;;;1999.90;999.90;;;24.00;99.90;;;;;;5021789;28;20557;-71
2022/05/30 07:51:12;;;;;;;1999.90;999.90;;;25.20;99.90;;;;;;5022885;28;20177;-71
2022/05/30 07:53:41;;;;;;;1999.90;999.90;;;26.10;99.90;;;;;;5027418;28;20244;-69
2022/05/30 07:56:09;;;;;;;1999.90;999.90;;;26.90;99.90;;;;;;5031478;28;20173;-73
2022/05/30 07:58:36;;;;;;;1999.90;999.90;;;27.00;99.90;;;;;;5020109;28;20183;-69
2022/05/30 08:01:03;;;;;;;1999.90;999.90;;;26.80;99.90;;;;;;5026008;28;20659;-70
2022/05/30 08:03:29;;;;;;;1999.90;999.90;;;27.20;99.90;;;;;;5032143;28;20212;-70
2022/05/30 08:06:05;;;;;;;1999.90;999.90;;;27.30;99.90;;;;;;5026266;28;20194;-70
2022/05/30 08:08:31;;;;;;;1999.90;999.90;;;26.10;99.90;;;;;;5030143;28;20182;-67
2022/05/30 08:10:56;;;;;;;1999.90;999.90;;;25.90;99.90;;;;;;5032611;28;20518;-68
2022/05/30 08:13:22;;;;;;;1999.90;999.90;;;26.40;99.90;;;;;;5027051;28;20179;-68
2022/05/30 08:15:47;;;;;;;1999.90;999.90;;;27.50;99.90;;;;;;5029079;28;20178;-68
2022/05/30 08:18:16;;;;;;;1999.90;999.90;;;27.60;99.90;;;;;;5026320;28;20679;-70
2022/05/30 08:20:42;;;;;;;1999.90;999.90;;;27.60;99.90;;;;;;5028341;28;20615;-70
2022/05/30 08:23:08;;;;;;;1999.90;999.90;;;26.70;99.90;;;;;;5047649;28;20209;-71
2022/05/30 08:25:34;;;;;;;1999.90;999.90;;;26.50;99.90;;;;;;5026157;28;20194;-71
2022/05/30 08:27:59;;;;;;;1999.90;999.90;;;25.00;99.90;;;;;;5035350;28;20185;-70
2022/05/30 08:30:25;;;;;;;1999.90;999.90;;;22.70;99.90;;;;;;5028255;28;20187;-68
2022/05/30 08:32:51;;;;;;;1999.90;999.90;;;21.70;99.90;;;;;;5032916;28;20187;-68
2022/05/30 08:35:19;;;;;;;1999.90;999.90;;;21.40;99.90;;;;;;5020309;28;20210;-69
2022/05/30 08:37:46;;;;;;;1999.90;999.90;;;20.90;99.90;;;;;;5036991;28;20635;-69
2022/05/30 08:43:48;;;;;;;1999.90;999.90;;;20.40;99.90;;;;;;5026803;28;20200;-69
2022/05/30 08:46:38;;;;;;;1999.90;999.90;;;19.90;99.90;;;;;;5028753;28;20197;-68
2022/05/30 08:49:35;;;;;;;1999.90;999.90;;;19.80;99.90;;;;;;5024001;28;20172;-69
2022/05/30 08:52:07;;;;;;;1999.90;999.90;;;20.10;99.90;;;;;;5024561;28;20182;-70
2022/05/30 08:54:42;;;;;;;1999.90;999.90;;;20.40;99.90;;;;;;5045704;28;20179;-76
2022/05/30 08:57:40;;;;;;;1999.90;999.90;;;20.60;99.90;;;;;;5030872;28;20170;-69
2022/05/30 09:00:12;;;;;;;1999.90;999.90;;;21.30;99.90;;;;;;5027710;28;20195;-69
2022/05/30 09:02:47;;;;;;;1999.90;999.90;;;20.70;99.90;;;;;;5040170;28;20274;-69
2022/05/30 09:05:25;;;;;;;1999.90;999.90;;;20.10;99.90;;;;;;5019986;28;20174;-70
2022/05/30 09:07:54;;;;;;;1999.90;999.90;;;19.70;99.90;;;;;;5023034;28;20178;-69
2022/05/30 09:10:35;;;;;;;1999.90;999.90;;;19.20;99.90;;;;;;5022893;28;20187;-69
2022/05/30 09:13:18;;;;;;;1999.90;999.90;;;19.50;99.90;;;;;;5029124;28;20253;-69
2022/05/30 09:16:03;;;;;;;1999.90;999.90;;;20.00;99.90;;;;;;5022325;28;20554;-69
2022/05/30 09:18:53;;;;;;;1999.90;999.90;;;20.30;99.90;;;;;;5029546;28;20239;-68
2022/05/30 09:21:21;;;;;;;1999.90;999.90;;;20.00;99.90;;;;;;5026384;28;20230;-69
2022/05/30 09:23:48;;;;;;;1999.90;999.90;;;20.80;99.90;;;;;;5026566;28;20202;-69
2022/05/30 09:26:22;;;;;;;1999.90;999.90;;;21.20;99.90;;;;;;5029521;28;20206;-68
2022/05/30 09:28:49;;;;;;;1999.90;999.90;;;21.40;99.90;;;;;;5034174;28;20182;-69
2022/05/30 09:31:40;;;;;;;1999.90;999.90;;;21.20;99.90;;;;;;5032980;28;20190;-68
2022/05/30 09:34:32;;;;;;;1999.90;999.90;;;21.20;99.90;;;;;;5034686;28;20703;-69
2022/05/30 09:36:58;;;;;;;1999.90;999.90;;;21.30;99.90;;;;;;5021571;28;20190;-69
2022/05/30 09:39:24;;;;;;;1999.90;999.90;;;21.30;99.90;;;;;;5023011;28;20183;-70
2022/05/30 09:41:56;;;;;;;1999.90;999.90;;;21.20;99.90;;;;;;4993981;28;20187;-68
2022/05/30 09:44:42;;;;;;;1999.90;999.90;;;21.30;99.90;;;;;;5024118;28;20270;-69
2022/05/30 09:47:16;;;;;;;1999.90;999.90;;;20.40;99.90;;;;;;5030606;28;20225;-77
2022/05/30 09:49:52;;;;;;;1999.90;999.90;;;20.00;99.90;;;;;;5031863;28;20184;-77
2022/05/30 09:52:32;;;;;;;1999.90;999.90;;;19.50;99.90;;;;;;5031176;28;20523;-77
2022/05/30 09:54:59;;;;;;;1999.90;999.90;;;19.40;99.90;;;;;;5034145;28;20183;-77
2022/05/30 09:57:41;;;;;;;1999.90;999.90;;;19.20;99.90;;;;;;5018843;28;20195;-77
2022/05/30 10:00:13;;;;;;;1999.90;999.90;;;19.20;99.90;;;;;;5033340;28;20648;-75
2022/05/30 10:02:44;;;;;;;1999.90;999.90;;;19.70;99.90;;;;;;5026780;28;20203;-75
2022/05/30 10:05:25;;;;;;;1999.90;999.90;;;20.00;99.90;;;;;;5034563;28;20245;-76
2022/05/30 10:07:55;;;;;;;1999.90;999.90;;;20.00;99.90;;;;;;5029789;28;20182;-77
2022/05/30 10:10:26;;;;;;;1999.90;999.90;;;19.80;99.90;;;;;;5029650;28;20187;-77
2022/05/30 10:13:05;;;;;;;1999.90;999.90;;;19.70;99.90;;;;;;5033659;28;20174;-79
2022/05/30 10:15:37;;;;;;;1999.90;999.90;;;19.80;99.90;;;;;;5046085;28;20183;-76
2022/05/30 10:18:17;;;;;;;1999.90;999.90;;;19.60;99.90;;;;;;5025499;28;20531;-74
2022/05/30 10:21:05;;;;;;;1999.90;999.90;;;19.40;99.90;;;;;;5030272;28;20669;-76
2022/05/30 10:30:04;;;;;;;1999.90;999.90;;;19.50;99.90;;;;;;5027770;28;20198;-71
2022/05/30 10:33:04;;;;;;;1999.90;999.90;;;19.80;99.90;;;;;;5025882;28;20194;-71
2022/05/30 10:35:58;;;;;;;1999.90;999.90;;;19.70;99.90;;;;;;5022059;28;20183;-71
2022/05/30 10:38:51;;;;;;;1999.90;999.90;;;19.80;99.90;;;;;;5021257;28;20186;-71
2022/05/30 10:41:20;;;;;;;1999.90;999.90;;;20.50;99.90;;;;;;5032963;28;20261;-71
2022/05/30 10:44:25;;;;;;;1999.90;999.90;;;20.50;99.90;;;;;;5019259;28;20652;-71
2022/05/30 10:47:06;;;;;;;1999.90;999.90;;;20.40;99.90;;;;;;5023850;28;20237;-73
2022/05/30 10:49:36;;;;;;;1999.90;999.90;;;20.60;99.90;;;;;;5024478;28;20183;-71
2022/05/30 10:52:25;;;;;;;1999.90;999.90;;;21.00;99.90;;;;;;5030130;28;20211;-73
2022/05/30 10:55:23;;;;;;;1999.90;999.90;;;21.30;99.90;;;;;;5014298;28;20176;-71
2022/05/30 10:57:56;;;;;;;1999.90;999.90;;;21.10;99.90;;;;;;5028082;28;20229;-71
2022/05/30 11:00:27;;;;;;;1999.90;999.90;;;21.20;99.90;;;;;;5031490;28;20552;-71
2022/05/30 11:03:25;;;;;;;1999.90;999.90;;;20.90;99.90;;;;;;5032164;28;20202;-71
2022/05/30 11:05:56;;;;;;;1999.90;999.90;;;21.00;99.90;;;;;;5020078;28;20195;-71
2022/05/30 11:08:45;;;;;;;1999.90;999.90;;;20.50;99.90;;;;;;5030689;28;20176;-70
2022/05/30 11:11:17;;;;;;;1999.90;999.90;;;20.70;99.90;;;;;;5024443;28;20186;-70
2022/05/30 11:14:18;;;;;;;1999.90;999.90;;;20.30;99.90;;;;;;5031365;28;20266;-72
2022/05/30 11:17:10;;;;;;;1999.90;999.90;;;20.30;99.90;;;;;;5017759;28;20198;-76
2022/05/30 11:20:24;;;;;;;1999.90;999.90;;;20.10;99.90;;;;;;5026387;28;20745;-69
2022/05/30 11:22:52;;;;;;;1999.90;999.90;;;19.40;99.90;;;;;;5011551;28;20603;-70
2022/05/30 11:25:42;;;;;;;1999.90;999.90;;;19.90;99.90;;;;;;5031618;28;20178;-68
2022/05/30 11:28:19;;;;;;;1999.90;999.90;;;20.40;99.90;;;;;;5031709;28;20224;-70
2022/05/30 11:31:10;;;;;;;1999.90;999.90;;;20.70;99.90;;;;;;5031829;28;20190;-76
2022/05/30 11:33:54;;;;;;;1999.90;999.90;;;20.80;99.90;;;;;;5009387;28;20198;-71
2022/05/30 11:36:44;;;;;;;1999.90;999.90;;;20.90;99.90;;;;;;5026507;28;20190;-72
2022/05/30 11:39:36;;;;;;;1999.90;999.90;;;20.70;99.90;;;;;;5031583;28;20245;-69
2022/05/30 11:42:08;;;;;;;1999.90;999.90;;;21.00;99.90;;;;;;5031885;28;20632;-72
2022/05/30 11:44:59;;;;;;;1999.90;999.90;;;21.10;99.90;;;;;;5023324;28;20179;-70
2022/05/30 11:48:00;;;;;;;1999.90;999.90;;;21.20;99.90;;;;;;5028453;28;20198;-70
2022/05/30 11:50:37;;;;;;;1999.90;999.90;;;21.10;99.90;;;;;;5018287;28;20183;-70
2022/05/30 11:53:41;;;;;;;1999.90;999.90;;;20.90;99.90;;;;;;5016215;28;20193;-70
2022/05/30 11:56:15;;;;;;;1999.90;999.90;;;20.70;99.90;;;;;;5029861;28;20175;-70
2022/05/30 11:58:56;;;;;;;1999.90;999.90;;;21.10;99.90;;;;;;5027087;28;20182;-70
2022/05/30 12:01:26;;;;;;;1999.90;999.90;;;21.20;99.90;;;;;;5030329;28;20198;-70
2022/05/30 12:03:54;;;;;;;1999.90;999.90;;;21.50;99.90;;;;;;5028837;28;20674;-71
2022/05/30 12:07:04;;;;;;;1999.90;999.90;;;21.70;99.90;;;;;;5030984;28;20186;-70
2022/05/30 12:09:32;;;;;;;1999.90;999.90;;;22.10;99.90;;;;;;5004587;28;20190;-73
2022/05/30 12:12:07;;;;;;;1999.90;999.90;;;22.40;99.90;;;;;;5021793;28;20270;-70
2022/05/30 12:14:51;;;;;;;1999.90;999.90;;;22.20;99.90;;;;;;5027342;28;20233;-70
2022/05/30 12:23:50;;;;;;;1999.90;999.90;;;22.20;99.90;;;;;;5024445;28;20572;-70
2022/05/30 12:26:48;;;;;;;1999.90;999.90;;;22.10;99.90;;;;;;5029006;28;20205;-71
2022/05/30 12:29:35;;;;;;;1999.90;999.90;;;21.90;99.90;;;;;;5010182;28;20194;-74
2022/05/30 12:32:22;;;;;;;1999.90;999.90;;;21.90;99.90;;;;;;5022441;28;20186;-69
2022/05/30 12:35:10;;;;;;;1999.90;999.90;;;21.80;99.90;;;;;;5026127;28;20193;-71
2022/05/30 12:37:43;;;;;;;1999.90;999.90;;;21.40;99.90;;;;;;5033351;28;20267;-69
2022/05/30 12:40:26;;;;;;;1999.90;999.90;;;20.70;99.90;;;;;;5022427;28;20261;-71
2022/05/30 12:43:10;;;;;;;1999.90;999.90;;;21.00;99.90;;;;;;5030945;28;20581;-69
2022/05/30 12:45:54;;;;;;;1999.90;999.90;;;20.80;99.90;;;;;;5044796;28;20206;-72
2022/05/30 12:48:29;;;;;;;1999.90;999.90;;;20.70;99.90;;;;;;5024750;28;20187;-72
2022/05/30 12:50:54;;;;;;;1999.90;999.90;;;20.80;99.90;;;;;;5023821;28;20183;-74
2022/05/30 12:53:23;;;;;;;1999.90;999.90;;;20.90;99.90;;;;;;5027083;28;20185;-74